sensor_id;sensor_type;location;lat;lon;timestamp;P1;durP1;ratioP1;P2;durP2;ratioP2
7233;SDS011;3658;47.992;10.158;2022-11-14T00:00:48;2.40;;;2.17;;
7233;SDS011;3658;47.992;10.158;2022-11-14T00:03:15;2.40;;;2.20;;
7233;SDS011;3658;47.992;10.158;2022-11-14T00:05:43;2.40;;;2.20;;
7233;SDS011;3658;47.992;10.158;2022-11-14T00:08:13;2.00;;;1.90;;
7233;SDS011;3658;47.992;10.158;2022-11-14T00:10:43;1.93;;;1.83;;
7233;SDS011;3658;47.992;10.158;2022-11-14T00:13:10;2.30;;;2.10;;
7233;SDS011;3658;47.992;10.158;2022-11-14T00:15:38;2.37;;;2.17;;
7233;SDS011;3658;47.992;10.158;2022-11-14T00:18:05;2.27;;;2.07;;
7233;SDS011;3658;47.992;10.158;2022-11-14T00:20:32;2.17;;;2.07;;
7233;SDS011;3658;47.992;10.158;2022-11-14T00:22:59;2.17;;;1.97;;
7233;SDS011;3658;47.992;10.158;2022-11-14T00:25:26;2.73;;;2.10;;
7233;SDS011;3658;47.992;10.158;2022-11-14T00:27:56;2.27;;;2.10;;
7233;SDS011;3658;47.992;10.158;2022-11-14T00:30:23;2.17;;;1.97;;
7233;SDS011;3658;47.992;10.158;2022-11-14T00:32:50;2.17;;;1.97;;
7233;SDS011;3658;47.992;10.158;2022-11-14T00:35:17;1.90;;;1.80;;
7233;SDS011;3658;47.992;10.158;2022-11-14T00:37:44;2.13;;;1.93;;
7233;SDS011;3658;47.992;10.158;2022-11-14T00:40:11;2.10;;;1.90;;
7233;SDS011;3658;47.992;10.158;2022-11-14T00:42:38;2.20;;;2.00;;
7233;SDS011;3658;47.992;10.158;2022-11-14T00:45:07;1.97;;;1.80;;
7233;SDS011;3658;47.992;10.158;2022-11-14T00:47:35;2.90;;;1.87;;
7233;SDS011;3658;47.992;10.158;2022-11-14T00:50:02;2.00;;;1.90;;
7233;SDS011;3658;47.992;10.158;2022-11-14T00:52:29;2.20;;;2.00;;
7233;SDS011;3658;47.992;10.158;2022-11-14T00:54:56;2.23;;;2.03;;
7233;SDS011;3658;47.992;10.158;2022-11-14T00:57:23;1.97;;;1.87;;
7233;SDS011;3658;47.992;10.158;2022-11-14T00:59:50;2.20;;;2.10;;
7233;SDS011;3658;47.992;10.158;2022-11-14T01:02:21;2.13;;;1.93;;
7233;SDS011;3658;47.992;10.158;2022-11-14T01:04:48;2.13;;;2.00;;
7233;SDS011;3658;47.992;10.158;2022-11-14T01:07:15;1.97;;;1.87;;
7233;SDS011;3658;47.992;10.158;2022-11-14T01:09:42;1.90;;;1.80;;
7233;SDS011;3658;47.992;10.158;2022-11-14T01:12:09;2.20;;;2.00;;
7233;SDS011;3658;47.992;10.158;2022-11-14T01:14:36;2.10;;;1.90;;
7233;SDS011;3658;47.992;10.158;2022-11-14T01:17:04;3.10;;;2.00;;
7233;SDS011;3658;47.992;10.158;2022-11-14T01:19:32;2.30;;;2.10;;
7233;SDS011;3658;47.992;10.158;2022-11-14T01:21:59;2.00;;;1.90;;
7233;SDS011;3658;47.992;10.158;2022-11-14T01:24:26;2.47;;;1.90;;
7233;SDS011;3658;47.992;10.158;2022-11-14T01:26:53;2.00;;;1.90;;
7233;SDS011;3658;47.992;10.158;2022-11-14T01:29:21;2.20;;;2.00;;
7233;SDS011;3658;47.992;10.158;2022-11-14T01:31:48;2.27;;;2.07;;
7233;SDS011;3658;47.992;10.158;2022-11-14T01:34:15;1.80;;;1.70;;
7233;SDS011;3658;47.992;10.158;2022-11-14T01:36:43;2.00;;;1.90;;
7233;SDS011;3658;47.992;10.158;2022-11-14T01:39:10;2.13;;;1.93;;
7233;SDS011;3658;47.992;10.158;2022-11-14T01:41:37;2.30;;;2.10;;
7233;SDS011;3658;47.992;10.158;2022-11-14T01:44:10;2.00;;;1.80;;
7233;SDS011;3658;47.992;10.158;2022-11-14T01:46:39;2.00;;;1.90;;
7233;SDS011;3658;47.992;10.158;2022-11-14T01:49:12;2.10;;;1.90;;
7233;SDS011;3658;47.992;10.158;2022-11-14T01:51:45;1.97;;;1.80;;
7233;SDS011;3658;47.992;10.158;2022-11-14T01:54:15;2.00;;;1.83;;
7233;SDS011;3658;47.992;10.158;2022-11-14T01:56:45;1.80;;;1.70;;
7233;SDS011;3658;47.992;10.158;2022-11-14T01:59:17;1.70;;;1.60;;
7233;SDS011;3658;47.992;10.158;2022-11-14T02:01:47;1.80;;;1.70;;
7233;SDS011;3658;47.992;10.158;2022-11-14T02:04:16;1.90;;;1.80;;
7233;SDS011;3658;47.992;10.158;2022-11-14T02:06:47;1.87;;;1.77;;
7233;SDS011;3658;47.992;10.158;2022-11-14T02:09:15;1.57;;;1.47;;
7233;SDS011;3658;47.992;10.158;2022-11-14T02:11:43;1.80;;;1.70;;
7233;SDS011;3658;47.992;10.158;2022-11-14T02:14:11;1.93;;;1.83;;
7233;SDS011;3658;47.992;10.158;2022-11-14T02:16:38;1.70;;;1.60;;
7233;SDS011;3658;47.992;10.158;2022-11-14T02:19:07;2.00;;;1.80;;
7233;SDS011;3658;47.992;10.158;2022-11-14T02:21:36;1.80;;;1.70;;
7233;SDS011;3658;47.992;10.158;2022-11-14T02:24:04;1.80;;;1.70;;
7233;SDS011;3658;47.992;10.158;2022-11-14T02:26:34;1.90;;;1.80;;
7233;SDS011;3658;47.992;10.158;2022-11-14T02:29:02;1.87;;;1.77;;
7233;SDS011;3658;47.992;10.158;2022-11-14T02:31:29;1.83;;;1.73;;
7233;SDS011;3658;47.992;10.158;2022-11-14T02:33:56;1.83;;;1.73;;
7233;SDS011;3658;47.992;10.158;2022-11-14T02:36:23;2.53;;;1.93;;
7233;SDS011;3658;47.992;10.158;2022-11-14T02:38:51;1.80;;;1.70;;
7233;SDS011;3658;47.992;10.158;2022-11-14T02:41:18;2.67;;;1.80;;
7233;SDS011;3658;47.992;10.158;2022-11-14T02:43:45;1.70;;;1.60;;
7233;SDS011;3658;47.992;10.158;2022-11-14T02:46:12;1.80;;;1.70;;
7233;SDS011;3658;47.992;10.158;2022-11-14T02:48:39;1.93;;;1.83;;
7233;SDS011;3658;47.992;10.158;2022-11-14T02:51:06;1.80;;;1.70;;
7233;SDS011;3658;47.992;10.158;2022-11-14T02:53:33;1.90;;;1.80;;
7233;SDS011;3658;47.992;10.158;2022-11-14T02:56:01;1.90;;;1.80;;
7233;SDS011;3658;47.992;10.158;2022-11-14T02:58:28;2.00;;;1.80;;
7233;SDS011;3658;47.992;10.158;2022-11-14T03:00:55;2.00;;;1.80;;
7233;SDS011;3658;47.992;10.158;2022-11-14T03:03:22;1.77;;;1.67;;
7233;SDS011;3658;47.992;10.158;2022-11-14T03:05:49;1.80;;;1.70;;
7233;SDS011;3658;47.992;10.158;2022-11-14T03:08:17;1.80;;;1.70;;
7233;SDS011;3658;47.992;10.158;2022-11-14T03:10:44;1.80;;;1.70;;
7233;SDS011;3658;47.992;10.158;2022-11-14T03:13:13;1.90;;;1.80;;
7233;SDS011;3658;47.992;10.158;2022-11-14T03:15:40;1.90;;;1.80;;
7233;SDS011;3658;47.992;10.158;2022-11-14T03:18:06;1.67;;;1.57;;
7233;SDS011;3658;47.992;10.158;2022-11-14T03:20:33;1.87;;;1.77;;
7233;SDS011;3658;47.992;10.158;2022-11-14T03:23:00;2.20;;;2.00;;
7233;SDS011;3658;47.992;10.158;2022-11-14T03:25:28;1.93;;;1.83;;
7233;SDS011;3658;47.992;10.158;2022-11-14T03:27:55;1.93;;;1.83;;
7233;SDS011;3658;47.992;10.158;2022-11-14T03:30:23;1.60;;;1.50;;
7233;SDS011;3658;47.992;10.158;2022-11-14T03:32:50;1.80;;;1.70;;
7233;SDS011;3658;47.992;10.158;2022-11-14T03:35:17;1.80;;;1.70;;
7233;SDS011;3658;47.992;10.158;2022-11-14T03:37:44;1.60;;;1.50;;
7233;SDS011;3658;47.992;10.158;2022-11-14T03:40:11;1.90;;;1.80;;
7233;SDS011;3658;47.992;10.158;2022-11-14T03:42:38;2.03;;;1.83;;
7233;SDS011;3658;47.992;10.158;2022-11-14T03:45:05;1.70;;;1.60;;
7233;SDS011;3658;47.992;10.158;2022-11-14T03:47:33;1.60;;;1.50;;
7233;SDS011;3658;47.992;10.158;2022-11-14T03:50:00;1.60;;;1.50;;
7233;SDS011;3658;47.992;10.158;2022-11-14T03:52:27;1.80;;;1.70;;
7233;SDS011;3658;47.992;10.158;2022-11-14T03:54:54;1.70;;;1.60;;
7233;SDS011;3658;47.992;10.158;2022-11-14T03:57:21;1.90;;;1.70;;
7233;SDS011;3658;47.992;10.158;2022-11-14T03:59:48;1.73;;;1.63;;
7233;SDS011;3658;47.992;10.158;2022-11-14T04:02:15;1.83;;;1.73;;
7233;SDS011;3658;47.992;10.158;2022-11-14T04:04:43;1.73;;;1.63;;
7233;SDS011;3658;47.992;10.158;2022-11-14T04:07:10;1.73;;;1.63;;
7233;SDS011;3658;47.992;10.158;2022-11-14T04:09:37;1.60;;;1.50;;
7233;SDS011;3658;47.992;10.158;2022-11-14T04:12:04;1.63;;;1.53;;
7233;SDS011;3658;47.992;10.158;2022-11-14T04:14:31;1.50;;;1.40;;
7233;SDS011;3658;47.992;10.158;2022-11-14T04:16:58;1.53;;;1.43;;
7233;SDS011;3658;47.992;10.158;2022-11-14T04:19:25;1.70;;;1.60;;
7233;SDS011;3658;47.992;10.158;2022-11-14T04:21:53;1.57;;;1.47;;
7233;SDS011;3658;47.992;10.158;2022-11-14T04:24:20;1.80;;;1.70;;
7233;SDS011;3658;47.992;10.158;2022-11-14T04:26:47;1.70;;;1.60;;
7233;SDS011;3658;47.992;10.158;2022-11-14T04:29:14;1.50;;;1.40;;
7233;SDS011;3658;47.992;10.158;2022-11-14T04:31:41;1.60;;;1.50;;
7233;SDS011;3658;47.992;10.158;2022-11-14T04:34:07;1.60;;;1.50;;
7233;SDS011;3658;47.992;10.158;2022-11-14T04:36:34;1.70;;;1.60;;
7233;SDS011;3658;47.992;10.158;2022-11-14T04:39:03;1.60;;;1.50;;
7233;SDS011;3658;47.992;10.158;2022-11-14T04:41:30;1.50;;;1.40;;
7233;SDS011;3658;47.992;10.158;2022-11-14T04:43:57;1.60;;;1.50;;
7233;SDS011;3658;47.992;10.158;2022-11-14T04:46:24;1.63;;;1.53;;
7233;SDS011;3658;47.992;10.158;2022-11-14T04:48:51;1.63;;;1.47;;
7233;SDS011;3658;47.992;10.158;2022-11-14T04:51:18;1.70;;;1.60;;
7233;SDS011;3658;47.992;10.158;2022-11-14T04:53:45;1.40;;;1.30;;
7233;SDS011;3658;47.992;10.158;2022-11-14T04:56:13;1.60;;;1.50;;
7233;SDS011;3658;47.992;10.158;2022-11-14T04:58:40;1.60;;;1.50;;
7233;SDS011;3658;47.992;10.158;2022-11-14T05:01:07;1.63;;;1.53;;
7233;SDS011;3658;47.992;10.158;2022-11-14T05:03:34;1.60;;;1.50;;
7233;SDS011;3658;47.992;10.158;2022-11-14T05:06:01;1.50;;;1.40;;
7233;SDS011;3658;47.992;10.158;2022-11-14T05:08:29;1.60;;;1.50;;
7233;SDS011;3658;47.992;10.158;2022-11-14T05:10:56;1.70;;;1.60;;
7233;SDS011;3658;47.992;10.158;2022-11-14T05:13:24;1.70;;;1.60;;
7233;SDS011;3658;47.992;10.158;2022-11-14T05:15:51;1.60;;;1.50;;
7233;SDS011;3658;47.992;10.158;2022-11-14T05:18:18;1.53;;;1.43;;
7233;SDS011;3658;47.992;10.158;2022-11-14T05:20:45;1.60;;;1.50;;
7233;SDS011;3658;47.992;10.158;2022-11-14T05:23:12;1.63;;;1.53;;
7233;SDS011;3658;47.992;10.158;2022-11-14T05:25:45;1.50;;;1.40;;
7233;SDS011;3658;47.992;10.158;2022-11-14T05:28:12;1.70;;;1.60;;
7233;SDS011;3658;47.992;10.158;2022-11-14T05:30:40;1.50;;;1.40;;
7233;SDS011;3658;47.992;10.158;2022-11-14T05:33:07;2.73;;;1.43;;
7233;SDS011;3658;47.992;10.158;2022-11-14T05:35:34;2.53;;;1.40;;
7233;SDS011;3658;47.992;10.158;2022-11-14T05:38:01;3.00;;;1.50;;
7233;SDS011;3658;47.992;10.158;2022-11-14T05:40:28;4.87;;;1.80;;
7233;SDS011;3658;47.992;10.158;2022-11-14T05:42:55;1.47;;;1.37;;
7233;SDS011;3658;47.992;10.158;2022-11-14T05:45:22;1.60;;;1.50;;
7233;SDS011;3658;47.992;10.158;2022-11-14T05:47:51;1.50;;;1.40;;
7233;SDS011;3658;47.992;10.158;2022-11-14T05:50:19;1.43;;;1.33;;
7233;SDS011;3658;47.992;10.158;2022-11-14T05:52:46;1.63;;;1.53;;
7233;SDS011;3658;47.992;10.158;2022-11-14T05:55:12;1.80;;;1.50;;
7233;SDS011;3658;47.992;10.158;2022-11-14T05:57:39;1.63;;;1.30;;
7233;SDS011;3658;47.992;10.158;2022-11-14T06:00:12;1.40;;;1.30;;
7233;SDS011;3658;47.992;10.158;2022-11-14T06:02:40;1.30;;;1.20;;
7233;SDS011;3658;47.992;10.158;2022-11-14T06:05:09;1.67;;;1.40;;
7233;SDS011;3658;47.992;10.158;2022-11-14T06:07:36;1.40;;;1.30;;
7233;SDS011;3658;47.992;10.158;2022-11-14T06:10:04;1.40;;;1.30;;
7233;SDS011;3658;47.992;10.158;2022-11-14T06:12:31;1.43;;;1.33;;
7233;SDS011;3658;47.992;10.158;2022-11-14T06:14:58;1.43;;;1.33;;
7233;SDS011;3658;47.992;10.158;2022-11-14T06:17:25;1.30;;;1.20;;
7233;SDS011;3658;47.992;10.158;2022-11-14T06:19:52;1.30;;;1.20;;
7233;SDS011;3658;47.992;10.158;2022-11-14T06:22:20;1.37;;;1.27;;
7233;SDS011;3658;47.992;10.158;2022-11-14T06:24:47;1.40;;;1.30;;
7233;SDS011;3658;47.992;10.158;2022-11-14T06:27:14;1.53;;;1.43;;
7233;SDS011;3658;47.992;10.158;2022-11-14T06:29:41;1.53;;;1.43;;
7233;SDS011;3658;47.992;10.158;2022-11-14T06:32:08;1.40;;;1.30;;
7233;SDS011;3658;47.992;10.158;2022-11-14T06:34:35;1.50;;;1.40;;
7233;SDS011;3658;47.992;10.158;2022-11-14T06:37:02;1.57;;;1.47;;
7233;SDS011;3658;47.992;10.158;2022-11-14T06:39:31;1.30;;;1.20;;
7233;SDS011;3658;47.992;10.158;2022-11-14T06:41:58;1.40;;;1.30;;
7233;SDS011;3658;47.992;10.158;2022-11-14T06:44:25;1.57;;;1.47;;
7233;SDS011;3658;47.992;10.158;2022-11-14T06:46:52;1.50;;;1.40;;
7233;SDS011;3658;47.992;10.158;2022-11-14T06:49:19;1.30;;;1.20;;
7233;SDS011;3658;47.992;10.158;2022-11-14T06:51:46;1.40;;;1.30;;
7233;SDS011;3658;47.992;10.158;2022-11-14T06:54:12;1.60;;;1.50;;
7233;SDS011;3658;47.992;10.158;2022-11-14T06:56:41;2.37;;;1.43;;
7233;SDS011;3658;47.992;10.158;2022-11-14T06:59:08;1.83;;;1.63;;
7233;SDS011;3658;47.992;10.158;2022-11-14T07:01:35;2.20;;;2.00;;
7233;SDS011;3658;47.992;10.158;2022-11-14T07:04:02;4.80;;;2.20;;
7233;SDS011;3658;47.992;10.158;2022-11-14T07:06:30;3.90;;;2.00;;
7233;SDS011;3658;47.992;10.158;2022-11-14T07:08:57;2.20;;;1.93;;
7233;SDS011;3658;47.992;10.158;2022-11-14T07:11:25;2.43;;;2.10;;
7233;SDS011;3658;47.992;10.158;2022-11-14T07:13:55;4.00;;;2.30;;
7233;SDS011;3658;47.992;10.158;2022-11-14T07:16:23;2.17;;;1.97;;
7233;SDS011;3658;47.992;10.158;2022-11-14T07:18:53;2.40;;;2.20;;
7233;SDS011;3658;47.992;10.158;2022-11-14T07:21:21;3.20;;;1.80;;
7233;SDS011;3658;47.992;10.158;2022-11-14T07:23:48;3.03;;;2.00;;
7233;SDS011;3658;47.992;10.158;2022-11-14T07:26:15;4.50;;;2.00;;
7233;SDS011;3658;47.992;10.158;2022-11-14T07:28:42;2.23;;;2.03;;
7233;SDS011;3658;47.992;10.158;2022-11-14T07:31:12;2.43;;;2.00;;
7233;SDS011;3658;47.992;10.158;2022-11-14T07:33:41;2.30;;;2.10;;
7233;SDS011;3658;47.992;10.158;2022-11-14T07:36:10;3.33;;;2.00;;
7233;SDS011;3658;47.992;10.158;2022-11-14T07:38:38;3.27;;;1.87;;
7233;SDS011;3658;47.992;10.158;2022-11-14T07:41:06;2.00;;;1.80;;
7233;SDS011;3658;47.992;10.158;2022-11-14T07:43:35;2.27;;;2.03;;
7233;SDS011;3658;47.992;10.158;2022-11-14T07:46:04;2.10;;;1.90;;
7233;SDS011;3658;47.992;10.158;2022-11-14T07:48:33;2.23;;;2.03;;
7233;SDS011;3658;47.992;10.158;2022-11-14T07:51:00;2.83;;;2.27;;
7233;SDS011;3658;47.992;10.158;2022-11-14T07:53:29;2.43;;;2.23;;
7233;SDS011;3658;47.992;10.158;2022-11-14T07:56:00;2.07;;;1.80;;
7233;SDS011;3658;47.992;10.158;2022-11-14T07:58:28;2.20;;;2.00;;
7233;SDS011;3658;47.992;10.158;2022-11-14T08:00:55;2.87;;;2.17;;
7233;SDS011;3658;47.992;10.158;2022-11-14T08:03:25;3.27;;;2.47;;
7233;SDS011;3658;47.992;10.158;2022-11-14T08:05:54;2.77;;;2.47;;
7233;SDS011;3658;47.992;10.158;2022-11-14T08:08:25;3.10;;;2.13;;
7233;SDS011;3658;47.992;10.158;2022-11-14T08:10:54;2.97;;;2.00;;
7233;SDS011;3658;47.992;10.158;2022-11-14T08:13:21;2.57;;;2.37;;
7233;SDS011;3658;47.992;10.158;2022-11-14T08:15:49;2.30;;;2.10;;
7233;SDS011;3658;47.992;10.158;2022-11-14T08:18:16;2.50;;;2.30;;
7233;SDS011;3658;47.992;10.158;2022-11-14T08:20:43;3.43;;;2.00;;
7233;SDS011;3658;47.992;10.158;2022-11-14T08:23:11;7.17;;;2.33;;
7233;SDS011;3658;47.992;10.158;2022-11-14T08:25:39;2.60;;;2.20;;
7233;SDS011;3658;47.992;10.158;2022-11-14T08:28:06;3.57;;;2.20;;
7233;SDS011;3658;47.992;10.158;2022-11-14T08:30:33;2.77;;;2.10;;
7233;SDS011;3658;47.992;10.158;2022-11-14T08:33:01;3.43;;;2.20;;
7233;SDS011;3658;47.992;10.158;2022-11-14T08:35:28;2.60;;;2.17;;
7233;SDS011;3658;47.992;10.158;2022-11-14T08:37:55;2.50;;;2.30;;
7233;SDS011;3658;47.992;10.158;2022-11-14T08:40:23;3.27;;;2.27;;
7233;SDS011;3658;47.992;10.158;2022-11-14T08:42:50;2.53;;;2.33;;
7233;SDS011;3658;47.992;10.158;2022-11-14T08:45:17;4.43;;;2.30;;
7233;SDS011;3658;47.992;10.158;2022-11-14T08:47:49;3.97;;;2.60;;
7233;SDS011;3658;47.992;10.158;2022-11-14T08:50:17;2.40;;;2.10;;
7233;SDS011;3658;47.992;10.158;2022-11-14T08:52:48;3.03;;;2.40;;
7233;SDS011;3658;47.992;10.158;2022-11-14T08:55:16;2.23;;;2.03;;
7233;SDS011;3658;47.992;10.158;2022-11-14T08:57:44;2.47;;;2.27;;
7233;SDS011;3658;47.992;10.158;2022-11-14T09:00:11;2.97;;;2.20;;
7233;SDS011;3658;47.992;10.158;2022-11-14T09:02:40;2.43;;;2.07;;
7233;SDS011;3658;47.992;10.158;2022-11-14T09:05:07;2.07;;;1.93;;
7233;SDS011;3658;47.992;10.158;2022-11-14T09:07:34;3.93;;;2.00;;
7233;SDS011;3658;47.992;10.158;2022-11-14T09:10:01;1.97;;;1.77;;
7233;SDS011;3658;47.992;10.158;2022-11-14T09:12:30;2.30;;;2.10;;
7233;SDS011;3658;47.992;10.158;2022-11-14T09:14:58;4.50;;;2.13;;
7233;SDS011;3658;47.992;10.158;2022-11-14T09:17:25;2.53;;;2.00;;
7233;SDS011;3658;47.992;10.158;2022-11-14T09:19:52;3.67;;;2.37;;
7233;SDS011;3658;47.992;10.158;2022-11-14T09:22:19;5.23;;;2.27;;
7233;SDS011;3658;47.992;10.158;2022-11-14T09:24:46;2.47;;;2.00;;
7233;SDS011;3658;47.992;10.158;2022-11-14T09:27:13;2.37;;;2.07;;
7233;SDS011;3658;47.992;10.158;2022-11-14T09:29:41;3.30;;;1.90;;
7233;SDS011;3658;47.992;10.158;2022-11-14T09:32:09;2.30;;;2.10;;
7233;SDS011;3658;47.992;10.158;2022-11-14T09:34:36;3.00;;;2.00;;
7233;SDS011;3658;47.992;10.158;2022-11-14T09:37:07;4.23;;;2.20;;
7233;SDS011;3658;47.992;10.158;2022-11-14T09:39:34;9.17;;;2.17;;
7233;SDS011;3658;47.992;10.158;2022-11-14T09:42:09;4.07;;;2.30;;
7233;SDS011;3658;47.992;10.158;2022-11-14T09:44:52;2.87;;;2.00;;
7233;SDS011;3658;47.992;10.158;2022-11-14T09:47:23;3.97;;;2.30;;
7233;SDS011;3658;47.992;10.158;2022-11-14T09:49:55;2.70;;;2.30;;
7233;SDS011;3658;47.992;10.158;2022-11-14T09:52:30;3.40;;;2.07;;
7233;SDS011;3658;47.992;10.158;2022-11-14T09:55:02;2.27;;;2.07;;
7233;SDS011;3658;47.992;10.158;2022-11-14T09:57:36;2.53;;;2.00;;
7233;SDS011;3658;47.992;10.158;2022-11-14T10:00:11;2.10;;;1.90;;
7233;SDS011;3658;47.992;10.158;2022-11-14T10:02:43;2.57;;;2.13;;
7233;SDS011;3658;47.992;10.158;2022-11-14T10:05:28;2.23;;;2.03;;
7233;SDS011;3658;47.992;10.158;2022-11-14T10:08:14;1.83;;;1.70;;
7233;SDS011;3658;47.992;10.158;2022-11-14T10:10:53;2.77;;;1.93;;
7233;SDS011;3658;47.992;10.158;2022-11-14T10:13:35;2.20;;;2.00;;
7233;SDS011;3658;47.992;10.158;2022-11-14T10:16:13;1.80;;;1.70;;
7233;SDS011;3658;47.992;10.158;2022-11-14T10:18:48;2.23;;;1.97;;
7233;SDS011;3658;47.992;10.158;2022-11-14T10:21:28;2.97;;;1.90;;
7233;SDS011;3658;47.992;10.158;2022-11-14T10:24:25;5.57;;;1.90;;
7233;SDS011;3658;47.992;10.158;2022-11-14T10:27:09;2.70;;;1.73;;
7233;SDS011;3658;47.992;10.158;2022-11-14T10:29:49;4.63;;;1.70;;
7233;SDS011;3658;47.992;10.158;2022-11-14T10:32:34;2.37;;;1.97;;
7233;SDS011;3658;47.992;10.158;2022-11-14T10:35:13;4.50;;;2.00;;
7233;SDS011;3658;47.992;10.158;2022-11-14T10:37:45;2.00;;;1.80;;
7233;SDS011;3658;47.992;10.158;2022-11-14T10:40:23;1.97;;;1.77;;
7233;SDS011;3658;47.992;10.158;2022-11-14T10:42:55;3.77;;;1.93;;
7233;SDS011;3658;47.992;10.158;2022-11-14T10:45:28;2.20;;;1.90;;
7233;SDS011;3658;47.992;10.158;2022-11-14T10:47:59;2.73;;;1.80;;
7233;SDS011;3658;47.992;10.158;2022-11-14T10:50:31;4.57;;;1.70;;
7233;SDS011;3658;47.992;10.158;2022-11-14T10:53:06;2.53;;;1.90;;
7233;SDS011;3658;47.992;10.158;2022-11-14T10:55:45;2.73;;;1.80;;
7233;SDS011;3658;47.992;10.158;2022-11-14T10:58:15;1.90;;;1.80;;
7233;SDS011;3658;47.992;10.158;2022-11-14T11:00:42;2.37;;;1.70;;
7233;SDS011;3658;47.992;10.158;2022-11-14T11:03:09;3.13;;;1.87;;
7233;SDS011;3658;47.992;10.158;2022-11-14T11:05:45;1.97;;;1.80;;
7233;SDS011;3658;47.992;10.158;2022-11-14T11:08:17;2.33;;;1.53;;
7233;SDS011;3658;47.992;10.158;2022-11-14T11:11:02;4.20;;;2.13;;
7233;SDS011;3658;47.992;10.158;2022-11-14T11:13:49;2.10;;;1.90;;
7233;SDS011;3658;47.992;10.158;2022-11-14T11:16:20;3.10;;;1.87;;
7233;SDS011;3658;47.992;10.158;2022-11-14T11:18:47;2.13;;;1.93;;
7233;SDS011;3658;47.992;10.158;2022-11-14T11:21:16;3.70;;;1.80;;
7233;SDS011;3658;47.992;10.158;2022-11-14T11:23:48;2.87;;;1.80;;
7233;SDS011;3658;47.992;10.158;2022-11-14T11:26:17;1.77;;;1.60;;
7233;SDS011;3658;47.992;10.158;2022-11-14T11:28:59;2.30;;;1.50;;
7233;SDS011;3658;47.992;10.158;2022-11-14T11:34:18;1.80;;;1.57;;
7233;SDS011;3658;47.992;10.158;2022-11-14T11:36:52;2.00;;;1.80;;
7233;SDS011;3658;47.992;10.158;2022-11-14T11:39:25;4.40;;;1.80;;
7233;SDS011;3658;47.992;10.158;2022-11-14T11:41:55;4.00;;;1.70;;
7233;SDS011;3658;47.992;10.158;2022-11-14T11:44:28;3.60;;;1.90;;
7233;SDS011;3658;47.992;10.158;2022-11-14T11:47:00;4.10;;;1.60;;
7233;SDS011;3658;47.992;10.158;2022-11-14T11:49:34;1.67;;;1.57;;
7233;SDS011;3658;47.992;10.158;2022-11-14T11:52:10;2.83;;;1.80;;
7233;SDS011;3658;47.992;10.158;2022-11-14T11:54:45;2.60;;;1.63;;
7233;SDS011;3658;47.992;10.158;2022-11-14T11:57:19;1.80;;;1.70;;
7233;SDS011;3658;47.992;10.158;2022-11-14T11:59:54;1.83;;;1.53;;
7233;SDS011;3658;47.992;10.158;2022-11-14T12:02:28;1.93;;;1.70;;
7233;SDS011;3658;47.992;10.158;2022-11-14T12:04:56;2.77;;;1.60;;
7233;SDS011;3658;47.992;10.158;2022-11-14T12:07:29;2.17;;;1.87;;
7233;SDS011;3658;47.992;10.158;2022-11-14T12:10:06;2.67;;;1.57;;
7233;SDS011;3658;47.992;10.158;2022-11-14T12:12:54;2.97;;;1.57;;
7233;SDS011;3658;47.992;10.158;2022-11-14T12:15:43;2.83;;;1.57;;
7233;SDS011;3658;47.992;10.158;2022-11-14T12:21:10;2.17;;;1.17;;
7233;SDS011;3658;47.992;10.158;2022-11-14T12:27:05;1.50;;;1.13;;
7233;SDS011;3658;47.992;10.158;2022-11-14T12:29:46;1.27;;;1.17;;
7233;SDS011;3658;47.992;10.158;2022-11-14T12:32:35;1.27;;;1.17;;
7233;SDS011;3658;47.992;10.158;2022-11-14T12:35:06;3.17;;;1.30;;
7233;SDS011;3658;47.992;10.158;2022-11-14T12:37:41;5.63;;;1.17;;
7233;SDS011;3658;47.992;10.158;2022-11-14T12:42:57;1.53;;;0.97;;
7233;SDS011;3658;47.992;10.158;2022-11-14T12:48:22;1.20;;;1.10;;
7233;SDS011;3658;47.992;10.158;2022-11-14T12:50:55;3.33;;;1.17;;
7233;SDS011;3658;47.992;10.158;2022-11-14T12:53:38;1.90;;;1.30;;
7233;SDS011;3658;47.992;10.158;2022-11-14T12:56:22;1.60;;;1.20;;
7233;SDS011;3658;47.992;10.158;2022-11-14T12:59:36;1.63;;;1.20;;
7233;SDS011;3658;47.992;10.158;2022-11-14T13:02:30;3.03;;;1.10;;
7233;SDS011;3658;47.992;10.158;2022-11-14T13:05:28;1.20;;;1.00;;
7233;SDS011;3658;47.992;10.158;2022-11-14T13:08:18;2.63;;;1.10;;
7233;SDS011;3658;47.992;10.158;2022-11-14T13:10:58;2.50;;;0.90;;
7233;SDS011;3658;47.992;10.158;2022-11-14T13:13:25;1.00;;;1.00;;
7233;SDS011;3658;47.992;10.158;2022-11-14T13:16:22;1.83;;;1.27;;
7233;SDS011;3658;47.992;10.158;2022-11-14T13:19:12;2.10;;;0.93;;
7233;SDS011;3658;47.992;10.158;2022-11-14T13:25:15;2.33;;;1.23;;
7233;SDS011;3658;47.992;10.158;2022-11-14T13:27:44;0.90;;;0.90;;
7233;SDS011;3658;47.992;10.158;2022-11-14T13:30:12;1.23;;;1.10;;
7233;SDS011;3658;47.992;10.158;2022-11-14T13:35:41;1.30;;;1.20;;
7233;SDS011;3658;47.992;10.158;2022-11-14T13:41:24;1.30;;;1.20;;
7233;SDS011;3658;47.992;10.158;2022-11-14T13:44:32;1.17;;;1.07;;
7233;SDS011;3658;47.992;10.158;2022-11-14T13:47:16;1.37;;;1.10;;
7233;SDS011;3658;47.992;10.158;2022-11-14T13:50:00;3.30;;;1.17;;
7233;SDS011;3658;47.992;10.158;2022-11-14T13:52:31;2.37;;;1.20;;
7233;SDS011;3658;47.992;10.158;2022-11-14T13:54:59;1.67;;;1.10;;
7233;SDS011;3658;47.992;10.158;2022-11-14T13:57:30;1.13;;;1.03;;
7233;SDS011;3658;47.992;10.158;2022-11-14T14:00:09;1.93;;;1.10;;
7233;SDS011;3658;47.992;10.158;2022-11-14T14:03:00;0.90;;;0.90;;
7233;SDS011;3658;47.992;10.158;2022-11-14T14:05:47;1.27;;;1.17;;
7233;SDS011;3658;47.992;10.158;2022-11-14T14:08:28;3.47;;;1.10;;
7233;SDS011;3658;47.992;10.158;2022-11-14T14:11:16;1.30;;;1.00;;
7233;SDS011;3658;47.992;10.158;2022-11-14T14:13:59;1.60;;;1.30;;
7233;SDS011;3658;47.992;10.158;2022-11-14T14:16:39;2.23;;;1.00;;
7233;SDS011;3658;47.992;10.158;2022-11-14T14:19:15;4.87;;;1.07;;
7233;SDS011;3658;47.992;10.158;2022-11-14T14:21:54;1.10;;;0.97;;
7233;SDS011;3658;47.992;10.158;2022-11-14T14:24:37;1.70;;;1.07;;
7233;SDS011;3658;47.992;10.158;2022-11-14T14:27:13;3.27;;;1.00;;
7233;SDS011;3658;47.992;10.158;2022-11-14T14:29:47;2.80;;;1.30;;
7233;SDS011;3658;47.992;10.158;2022-11-14T14:32:22;1.40;;;0.93;;
7233;SDS011;3658;47.992;10.158;2022-11-14T14:34:55;1.83;;;1.10;;
7233;SDS011;3658;47.992;10.158;2022-11-14T14:37:26;1.67;;;1.00;;
7233;SDS011;3658;47.992;10.158;2022-11-14T14:39:55;1.10;;;1.00;;
7233;SDS011;3658;47.992;10.158;2022-11-14T14:42:23;1.30;;;1.00;;
7233;SDS011;3658;47.992;10.158;2022-11-14T14:44:51;1.20;;;1.10;;
7233;SDS011;3658;47.992;10.158;2022-11-14T14:47:28;2.30;;;1.10;;
7233;SDS011;3658;47.992;10.158;2022-11-14T14:50:02;1.97;;;1.17;;
7233;SDS011;3658;47.992;10.158;2022-11-14T14:52:35;3.03;;;1.10;;
7233;SDS011;3658;47.992;10.158;2022-11-14T14:55:06;1.53;;;1.20;;
7233;SDS011;3658;47.992;10.158;2022-11-14T14:57:44;1.20;;;1.10;;
7233;SDS011;3658;47.992;10.158;2022-11-14T15:00:17;1.20;;;1.10;;
7233;SDS011;3658;47.992;10.158;2022-11-14T15:02:46;2.77;;;1.00;;
7233;SDS011;3658;47.992;10.158;2022-11-14T15:05:20;1.23;;;1.13;;
7233;SDS011;3658;47.992;10.158;2022-11-14T15:07:49;2.60;;;1.10;;
7233;SDS011;3658;47.992;10.158;2022-11-14T15:10:21;1.70;;;1.07;;
7233;SDS011;3658;47.992;10.158;2022-11-14T15:12:50;2.33;;;0.97;;
7233;SDS011;3658;47.992;10.158;2022-11-14T15:15:18;1.60;;;1.20;;
7233;SDS011;3658;47.992;10.158;2022-11-14T15:17:47;4.90;;;1.00;;
7233;SDS011;3658;47.992;10.158;2022-11-14T15:20:22;2.40;;;1.30;;
7233;SDS011;3658;47.992;10.158;2022-11-14T15:23:16;1.53;;;1.20;;
7233;SDS011;3658;47.992;10.158;2022-11-14T15:25:45;2.80;;;1.17;;
7233;SDS011;3658;47.992;10.158;2022-11-14T15:28:14;1.67;;;1.30;;
7233;SDS011;3658;47.992;10.158;2022-11-14T15:30:53;1.20;;;1.10;;
7233;SDS011;3658;47.992;10.158;2022-11-14T15:33:24;1.17;;;1.10;;
7233;SDS011;3658;47.992;10.158;2022-11-14T15:36:03;1.13;;;1.03;;
7233;SDS011;3658;47.992;10.158;2022-11-14T15:38:33;1.30;;;1.20;;
7233;SDS011;3658;47.992;10.158;2022-11-14T15:41:08;3.77;;;1.17;;
7233;SDS011;3658;47.992;10.158;2022-11-14T15:43:46;4.30;;;1.20;;
7233;SDS011;3658;47.992;10.158;2022-11-14T15:49:16;3.73;;;1.80;;